createdAt,value
2018-11-14T02:39:53.531Z,12.03
2018-11-14T02:42:27.239Z,12.28
2018-11-14T02:44:57.987Z,11.80
2018-11-14T02:50:19.102Z,14.13
2018-11-14T02:56:43.238Z,13.90
2018-11-14T02:59:37.922Z,12.80
2018-11-14T03:02:09.696Z,12.63
2018-11-14T03:04:38.472Z,13.28
2018-11-14T03:07:07.234Z,12.73
2018-11-14T03:09:38.326Z,12.50
2018-11-14T03:12:10.798Z,12.78
2018-11-14T03:14:39.669Z,13.08
2018-11-14T03:17:09.725Z,14.00
2018-11-14T03:19:38.398Z,13.45
2018-11-14T03:22:07.295Z,14.90
2018-11-14T03:24:36.065Z,12.20
2018-11-14T03:27:04.815Z,13.55
2018-11-14T03:29:33.360Z,12.88
2018-11-14T03:32:02.158Z,13.25
2018-11-14T03:34:30.764Z,14.28
2018-11-14T03:36:59.463Z,11.75
2018-11-14T03:39:28.452Z,13.65
2018-11-14T03:41:57.215Z,12.90
2018-11-14T03:44:26.143Z,15.70
2018-11-14T03:46:54.690Z,14.78
2018-11-14T03:49:23.316Z,13.25
2018-11-14T03:51:52.104Z,14.33
2018-11-14T03:54:20.734Z,14.07
2018-11-14T03:56:49.326Z,14.38
2018-11-14T03:59:18.249Z,12.90
2018-11-14T04:01:47.037Z,16.40
2018-11-14T04:04:15.802Z,13.65
2018-11-14T04:06:44.568Z,15.30
2018-11-14T04:09:13.595Z,14.10
2018-11-14T04:11:42.624Z,16.00
2018-11-14T04:14:11.388Z,13.22
2018-11-14T04:16:40.004Z,14.73
2018-11-14T04:19:08.629Z,15.10
2018-11-14T04:21:37.469Z,14.75
2018-11-14T04:24:06.364Z,14.07
2018-11-14T04:26:34.951Z,15.78
2018-11-14T04:29:03.904Z,13.80
2018-11-14T04:31:32.594Z,12.90
2018-11-14T04:34:01.535Z,13.48
2018-11-14T04:36:30.386Z,13.10
2018-11-14T04:38:58.954Z,12.90
2018-11-14T04:41:27.635Z,14.35
2018-11-14T04:43:56.323Z,14.53
2018-11-14T04:46:24.963Z,16.35
2018-11-14T04:48:53.574Z,14.98
2018-11-14T04:51:22.179Z,16.37
2018-11-14T04:53:50.837Z,15.03
2018-11-14T04:56:19.563Z,14.78
2018-11-14T04:58:48.246Z,15.00
2018-11-14T05:01:16.940Z,15.35
2018-11-14T05:03:45.580Z,15.68
2018-11-14T05:06:14.265Z,15.53
2018-11-14T05:08:42.897Z,17.02
2018-11-14T05:11:11.521Z,17.02
2018-11-14T05:13:40.231Z,17.00
2018-11-14T05:16:08.950Z,15.85
2018-11-14T05:18:37.672Z,17.20
2018-11-14T05:21:06.544Z,16.77
2018-11-14T05:23:35.825Z,15.65
2018-11-14T05:26:04.506Z,16.60
2018-11-14T05:28:33.171Z,16.32
2018-11-14T05:31:01.921Z,15.10
2018-11-14T05:33:30.764Z,18.25
2018-11-14T05:35:59.563Z,14.38
2018-11-14T05:38:28.280Z,16.45
2018-11-14T05:40:56.928Z,15.95
2018-11-14T05:43:25.916Z,17.82
2018-11-14T05:45:54.650Z,15.85
2018-11-14T05:48:23.286Z,16.57
2018-11-14T05:51:03.100Z,17.67
2018-11-14T05:53:31.724Z,18.42
2018-11-14T05:56:00.281Z,18.10
2018-11-14T06:01:23.935Z,20.80
2018-11-14T06:03:52.609Z,19.05
2018-11-14T06:06:21.168Z,18.32
2018-11-14T06:08:49.975Z,18.07
2018-11-14T06:11:18.918Z,19.12
2018-11-14T06:13:47.669Z,19.37
2018-11-14T06:16:16.358Z,17.05
2018-11-14T06:18:45.116Z,17.23
2018-11-14T06:21:13.749Z,16.07
2018-11-14T06:23:42.566Z,17.52
2018-11-14T06:26:11.344Z,19.50
2018-11-14T06:28:40.115Z,20.15
2018-11-14T06:31:08.716Z,20.05
2018-11-14T06:33:37.400Z,20.60
2018-11-14T06:36:06.076Z,19.67
2018-11-14T06:38:34.593Z,21.27
2018-11-14T06:41:03.266Z,20.15
2018-11-14T06:43:31.639Z,21.50
2018-11-14T06:46:00.281Z,20.88
2018-11-14T06:48:29.130Z,24.37
2018-11-14T06:50:57.540Z,21.37
2018-11-14T06:53:25.928Z,20.68
2018-11-14T06:55:54.408Z,19.50
2018-11-14T06:58:22.895Z,20.48
2018-11-14T07:00:51.599Z,20.62
2018-11-14T07:03:20.378Z,20.82
2018-11-14T07:05:48.885Z,24.98
2018-11-14T07:08:17.340Z,23.32
2018-11-14T07:10:46.214Z,25.35
2018-11-14T07:13:14.536Z,22.32
2018-11-14T07:15:43.479Z,22.87
2018-11-14T07:18:12.742Z,23.57
2018-11-14T07:20:42.533Z,18.70
2018-11-14T07:23:10.878Z,22.93
2018-11-14T07:25:39.281Z,21.02
2018-11-14T07:28:07.632Z,22.25
2018-11-14T07:30:36.475Z,20.05
2018-11-14T07:33:06.383Z,22.05
2018-11-14T07:35:34.904Z,19.35
2018-11-14T07:38:35.721Z,21.60
2018-11-14T07:41:05.331Z,20.55
2018-11-14T07:43:34.384Z,21.17
2018-11-14T07:46:02.797Z,19.25
2018-11-14T07:48:31.436Z,19.95
2018-11-14T07:50:59.825Z,20.65
2018-11-14T07:53:28.243Z,18.20
2018-11-14T07:55:56.918Z,19.52
2018-11-14T07:58:25.249Z,21.65
2018-11-14T08:00:54.380Z,22.40
2018-11-14T08:03:22.969Z,19.32
2018-11-14T08:05:51.404Z,19.82
2018-11-14T08:08:20.080Z,20.68
2018-11-14T08:10:48.489Z,20.30
2018-11-14T08:13:20.097Z,19.48
2018-11-14T08:15:49.443Z,21.17
2018-11-14T08:18:17.795Z,22.13
2018-11-14T08:20:46.304Z,20.20
2018-11-14T08:23:14.733Z,21.77
2018-11-14T08:25:43.163Z,18.87
2018-11-14T08:28:11.721Z,19.20
2018-11-14T08:30:40.387Z,20.75
2018-11-14T08:33:08.958Z,18.17
2018-11-14T08:35:37.395Z,19.42
2018-11-14T08:38:21.973Z,20.77
2018-11-14T08:40:50.812Z,24.57
2018-11-14T08:43:19.536Z,18.80
2018-11-14T08:45:48.279Z,18.70
2018-11-14T08:48:17.158Z,18.55
2018-11-14T08:50:45.867Z,18.37
2018-11-14T08:53:14.529Z,19.90
2018-11-14T08:55:43.308Z,19.52
2018-11-14T08:58:12.766Z,19.50
2018-11-14T09:00:41.474Z,19.50
2018-11-14T09:03:11.247Z,19.48
2018-11-14T09:05:40.022Z,16.85
2018-11-14T09:08:09.274Z,17.75
2018-11-14T09:10:37.937Z,18.65
2018-11-14T09:13:10.843Z,19.52
2018-11-14T09:15:39.631Z,17.95
2018-11-14T09:18:08.659Z,17.57
2018-11-14T09:20:37.268Z,18.15
2018-11-14T09:23:06.202Z,17.80
2018-11-14T09:25:34.923Z,18.60
2018-11-14T09:28:03.896Z,21.97
2018-11-14T09:30:32.618Z,19.05
2018-11-14T09:33:01.363Z,17.65
2018-11-14T09:35:30.030Z,19.67
2018-11-14T09:37:59.799Z,18.10
2018-11-14T09:40:29.321Z,18.62
2018-11-14T09:42:58.236Z,18.25
2018-11-14T09:45:28.334Z,21.77
2018-11-14T09:47:57.037Z,17.82
2018-11-14T09:50:30.023Z,19.00
2018-11-14T09:52:59.974Z,19.23
2018-11-14T09:55:28.734Z,19.10
2018-11-14T09:57:57.470Z,18.90
2018-11-14T10:00:27.370Z,18.73
2018-11-14T10:03:06.215Z,19.32
2018-11-14T10:05:34.978Z,17.50
2018-11-14T10:08:03.651Z,18.65
2018-11-14T10:10:32.491Z,16.20
2018-11-14T10:13:01.213Z,16.00
2018-11-14T10:15:30.183Z,16.62
2018-11-14T10:17:59.098Z,18.60
2018-11-14T10:20:27.824Z,16.42
2018-11-14T10:22:56.517Z,14.90
2018-11-14T10:25:25.154Z,17.05
2018-11-14T10:27:53.859Z,18.50
2018-11-14T10:30:23.939Z,17.73
2018-11-14T10:32:53.093Z,16.50
2018-11-14T10:35:21.822Z,17.67
2018-11-14T10:37:51.374Z,17.30
2018-11-14T10:40:23.899Z,17.60
2018-11-14T10:42:52.665Z,16.10
2018-11-14T10:45:22.544Z,18.85
2018-11-14T10:47:51.225Z,19.42
2018-11-14T10:50:21.303Z,16.05
2018-11-14T10:52:49.971Z,17.15
2018-11-14T10:55:19.034Z,15.23
2018-11-14T10:57:47.753Z,17.48
2018-11-14T11:00:25.566Z,17.75
2018-11-14T11:02:59.517Z,17.48
2018-11-14T11:07:34.535Z,17.35
2018-11-14T11:10:09.701Z,18.62
2018-11-14T11:12:43.619Z,17.82
2018-11-14T11:15:17.443Z,19.20
2018-11-14T11:17:51.577Z,17.20
2018-11-14T11:23:10.327Z,18.00
2018-11-14T11:25:39.052Z,16.17
2018-11-14T11:28:08.284Z,19.23
2018-11-14T11:30:37.123Z,17.30
2018-11-14T11:33:06.148Z,17.35
2018-11-14T11:35:34.872Z,19.73
2018-11-14T11:38:03.918Z,19.12
2018-11-14T11:40:32.764Z,19.30
2018-11-14T11:43:02.007Z,19.37
2018-11-14T11:45:30.725Z,19.02
2018-11-14T11:47:59.443Z,18.70
2018-11-14T11:50:28.384Z,17.95
2018-11-14T11:52:57.076Z,18.42
2018-11-14T11:55:25.889Z,19.70
2018-11-14T11:57:54.608Z,17.05
2018-11-14T12:00:23.364Z,20.08
2018-11-14T12:02:51.937Z,18.70
2018-11-14T12:05:20.583Z,19.87
2018-11-14T12:07:49.444Z,20.70
2018-11-14T12:10:18.227Z,21.02
2018-11-14T12:12:46.900Z,19.80
2018-11-14T12:15:15.528Z,21.80
2018-11-14T12:17:44.354Z,20.97
2018-11-14T12:20:14.173Z,17.85
2018-11-14T12:22:43.129Z,19.10
2018-11-14T12:25:13.667Z,20.43
2018-11-14T12:27:42.583Z,19.92
2018-11-14T12:30:14.315Z,18.67
2018-11-14T12:32:43.687Z,20.82
2018-11-14T12:35:13.817Z,19.12
2018-11-14T12:37:42.689Z,17.25
2018-11-14T12:40:12.470Z,22.60
2018-11-14T12:42:41.193Z,16.48
2018-11-14T12:45:11.845Z,18.57
2018-11-14T12:47:40.565Z,18.02
2018-11-14T12:50:10.421Z,20.10
2018-11-14T12:52:39.263Z,17.07
2018-11-14T12:55:09.550Z,17.32
2018-11-14T12:57:38.263Z,20.90
2018-11-14T13:00:08.467Z,18.70
2018-11-14T13:02:37.209Z,20.37
2018-11-14T13:05:06.638Z,16.97
2018-11-14T13:07:35.287Z,17.75
2018-11-14T13:10:03.986Z,17.40
2018-11-14T13:12:32.701Z,18.82
2018-11-14T13:15:01.348Z,17.50
2018-11-14T13:17:29.967Z,18.30
2018-11-14T13:20:01.008Z,20.08
2018-11-14T13:22:29.771Z,18.07
2018-11-14T13:24:58.382Z,17.67
2018-11-14T13:27:26.971Z,19.85
2018-11-14T13:30:02.210Z,19.80
2018-11-14T13:32:30.916Z,17.48
2018-11-14T13:34:59.633Z,15.70
2018-11-14T13:37:29.990Z,15.25
2018-11-14T13:39:58.680Z,16.25
2018-11-14T13:42:27.374Z,15.48
2018-11-14T13:44:59.862Z,14.05
2018-11-14T13:47:29.304Z,14.80
2018-11-14T13:49:58.084Z,14.15
2018-11-14T13:52:26.831Z,16.42
2018-11-14T13:54:55.592Z,13.95
2018-11-14T13:57:25.608Z,17.80
2018-11-14T13:59:54.549Z,18.60
2018-11-14T14:02:23.303Z,17.20
2018-11-14T14:04:52.039Z,15.98
2018-11-14T14:07:20.986Z,20.00
2018-11-14T14:09:49.645Z,18.98
2018-11-14T14:12:18.305Z,17.73
2018-11-14T14:14:47.034Z,20.10
2018-11-14T14:17:15.736Z,18.62
2018-11-14T14:19:44.453Z,17.98
2018-11-14T14:22:13.371Z,17.95
2018-11-14T14:24:42.095Z,17.80
2018-11-14T14:27:11.017Z,17.80
2018-11-14T14:29:40.180Z,19.73
2018-11-14T14:32:08.914Z,15.95
2018-11-14T14:34:37.684Z,18.10
2018-11-14T14:37:08.199Z,17.40
2018-11-14T14:39:36.584Z,21.52
2018-11-14T14:42:05.198Z,17.95
2018-11-14T14:44:33.608Z,19.75
2018-11-14T14:47:02.239Z,26.50
2018-11-14T14:49:30.852Z,20.12
2018-11-14T14:51:59.726Z,21.33
2018-11-14T14:54:28.545Z,22.42
2018-11-14T14:56:57.185Z,21.68
2018-11-14T14:59:25.800Z,23.38
2018-11-14T15:01:54.372Z,22.87
2018-11-14T15:04:28.287Z,22.98
2018-11-14T15:06:56.842Z,22.32
2018-11-14T15:09:25.625Z,23.70
2018-11-14T15:11:54.148Z,23.30
2018-11-14T15:14:22.758Z,22.58
2018-11-14T15:16:51.392Z,21.93
2018-11-14T15:19:20.136Z,25.62
2018-11-14T15:21:48.844Z,23.65
2018-11-14T15:24:17.508Z,23.83
2018-11-14T15:26:46.082Z,22.13
2018-11-14T15:29:14.886Z,26.00
2018-11-14T15:31:43.443Z,26.62
2018-11-14T15:34:12.010Z,24.85
2018-11-14T15:36:40.713Z,22.75
2018-11-14T15:39:11.098Z,28.52
2018-11-14T15:41:39.705Z,28.52
2018-11-14T15:44:08.560Z,27.52
2018-11-14T15:46:37.164Z,27.40
2018-11-14T15:49:05.820Z,26.23
2018-11-14T15:51:34.447Z,26.12
2018-11-14T15:54:03.081Z,28.17
2018-11-14T15:56:31.541Z,29.95
2018-11-14T15:59:00.315Z,28.92
2018-11-14T16:01:29.239Z,28.38
2018-11-14T16:03:57.909Z,28.27
2018-11-14T16:06:26.503Z,30.75
2018-11-14T16:08:55.257Z,33.23
2018-11-14T16:11:24.043Z,66.10
2018-11-14T16:13:58.488Z,84.95
2018-11-14T16:16:27.206Z,90.67
2018-11-14T16:18:55.919Z,47.33
2018-11-14T16:21:24.572Z,33.05
2018-11-14T16:23:53.308Z,32.60
2018-11-14T16:26:21.982Z,44.75
2018-11-14T16:28:50.710Z,45.83
2018-11-14T16:31:19.369Z,33.38
2018-11-14T16:33:47.979Z,32.00
2018-11-14T16:36:16.601Z,29.10
2018-11-14T16:38:45.220Z,29.70
2018-11-14T16:41:13.878Z,27.80
2018-11-14T16:43:42.695Z,28.83
2018-11-14T16:46:11.269Z,26.97
2018-11-14T16:48:39.904Z,28.35
2018-11-14T16:51:08.595Z,27.50
2018-11-14T16:53:37.449Z,27.30
2018-11-14T16:56:06.384Z,28.25
2018-11-14T16:58:35.255Z,30.80
2018-11-14T17:01:03.846Z,27.42
2018-11-14T17:03:32.582Z,28.47
2018-11-14T17:06:01.989Z,28.83
2018-11-14T17:08:30.809Z,32.05
2018-11-14T17:10:59.515Z,31.68
2018-11-14T17:13:28.210Z,34.70
2018-11-14T17:15:56.894Z,35.38
2018-11-14T17:18:25.562Z,30.82
2018-11-14T17:20:54.224Z,34.65
2018-11-14T17:23:22.886Z,33.48
2018-11-14T17:25:51.858Z,29.70
2018-11-14T17:28:20.542Z,32.65
2018-11-14T17:30:49.198Z,32.00
2018-11-14T17:33:17.856Z,29.12
2018-11-14T17:35:46.438Z,26.37
2018-11-14T17:38:15.096Z,27.93
2018-11-14T17:40:43.783Z,28.65
2018-11-14T17:43:12.476Z,29.77
2018-11-14T17:45:41.160Z,31.50
2018-11-14T17:48:09.715Z,32.50
2018-11-14T17:50:43.088Z,31.40
2018-11-14T17:53:12.004Z,32.60
2018-11-14T17:55:40.642Z,31.82
2018-11-14T17:58:09.255Z,30.62
2018-11-14T18:00:37.888Z,37.75
2018-11-14T18:03:06.603Z,35.35
2018-11-14T18:05:35.215Z,31.87
2018-11-14T18:08:04.057Z,34.23
2018-11-14T18:10:32.874Z,34.08
2018-11-14T18:13:02.539Z,31.50
2018-11-14T18:15:31.110Z,31.82
2018-11-14T18:17:59.774Z,30.77
2018-11-14T18:20:29.688Z,31.42
2018-11-14T18:22:58.457Z,32.98
2018-11-14T18:25:27.364Z,35.05
2018-11-14T18:27:56.241Z,33.25
2018-11-14T18:30:25.919Z,35.10
2018-11-14T18:32:55.323Z,33.15
2018-11-14T18:35:24.470Z,35.10
2018-11-14T18:37:53.749Z,36.93
2018-11-14T18:40:24.488Z,33.10
2018-11-14T18:42:53.087Z,36.10
2018-11-14T18:45:25.933Z,35.00
2018-11-14T18:47:55.161Z,31.82
2018-11-14T18:50:24.193Z,33.08
2018-11-14T18:52:53.244Z,30.55
2018-11-14T18:55:22.975Z,33.45
2018-11-14T18:57:51.821Z,28.95
2018-11-14T19:00:25.607Z,29.35
2018-11-14T19:02:54.265Z,29.82
2018-11-14T19:05:23.170Z,31.10
2018-11-14T19:07:52.422Z,32.70
2018-11-14T19:10:22.413Z,28.67
2018-11-14T19:12:51.656Z,27.13
2018-11-14T19:15:21.483Z,28.27
2018-11-14T19:17:51.151Z,27.87
2018-11-14T19:20:21.771Z,30.02
2018-11-14T19:22:51.875Z,36.15
2018-11-14T19:25:21.930Z,30.02
2018-11-14T19:27:50.865Z,28.60
2018-11-14T19:30:21.185Z,29.05
2018-11-14T19:32:51.499Z,27.95
2018-11-14T19:35:20.552Z,30.90
2018-11-14T19:37:50.270Z,30.32
2018-11-14T19:40:23.992Z,35.50
2018-11-14T19:42:56.957Z,31.30
2018-11-14T19:45:27.146Z,31.30
2018-11-14T19:47:55.960Z,34.90
2018-11-14T19:50:25.334Z,33.58
2018-11-14T19:52:55.714Z,31.55
2018-11-14T19:55:25.433Z,34.23
2018-11-14T19:57:55.314Z,31.30
2018-11-14T20:00:25.714Z,31.35
2018-11-14T20:02:59.862Z,29.32
2018-11-14T20:05:28.631Z,26.02
2018-11-14T20:07:57.491Z,29.35
2018-11-14T20:10:28.493Z,27.80
2018-11-14T20:12:57.204Z,28.75
2018-11-14T20:15:29.346Z,29.05
2018-11-14T20:17:57.929Z,30.25
2018-11-14T20:20:28.147Z,27.00
2018-11-14T20:22:56.852Z,26.50
2018-11-14T20:25:26.179Z,24.82
2018-11-14T20:27:55.411Z,24.98
2018-11-14T20:30:39.844Z,30.25
2018-11-14T20:33:10.119Z,28.75
2018-11-14T20:35:38.859Z,29.75
2018-11-14T20:38:17.050Z,28.55
2018-11-14T20:40:48.548Z,28.92
2018-11-14T20:43:17.256Z,30.68
2018-11-14T20:45:45.887Z,27.70
2018-11-14T20:48:14.550Z,29.67
2018-11-14T20:50:46.303Z,28.65
2018-11-14T20:53:14.971Z,29.95
2018-11-14T20:55:43.707Z,26.60
2018-11-14T20:58:12.444Z,29.57
2018-11-14T21:00:41.201Z,30.77
2018-11-14T21:03:10.049Z,27.90
2018-11-14T21:05:45.525Z,29.23
2018-11-14T21:08:14.205Z,30.00
2018-11-14T21:10:42.956Z,32.90
2018-11-14T21:13:12.793Z,32.93
2018-11-14T21:15:41.366Z,35.48
2018-11-14T21:18:10.073Z,31.40
2018-11-14T21:20:38.741Z,30.00
2018-11-14T21:23:07.945Z,33.80
2018-11-14T21:25:43.285Z,30.30
2018-11-14T21:28:11.960Z,30.85
2018-11-14T21:30:40.764Z,29.35
2018-11-14T21:33:20.886Z,30.02
2018-11-14T21:35:54.391Z,29.52
2018-11-14T21:38:23.226Z,29.02
2018-11-14T21:40:51.742Z,33.08
2018-11-14T21:43:20.400Z,31.10
2018-11-14T21:45:49.246Z,28.30
2018-11-14T21:48:18.588Z,29.18
2018-11-14T21:50:47.681Z,27.27
2018-11-14T21:53:16.547Z,28.62
2018-11-14T21:55:45.082Z,23.95
2018-11-14T21:58:13.986Z,27.32
2018-11-14T22:00:42.760Z,28.12
2018-11-14T22:03:11.668Z,26.37
2018-11-14T22:05:40.564Z,26.60
2018-11-14T22:08:09.285Z,24.35
2018-11-14T22:10:37.992Z,24.40
2018-11-14T22:13:07.088Z,22.82
2018-11-14T22:15:35.896Z,25.15
2018-11-14T22:18:04.791Z,23.62
2018-11-14T22:20:33.636Z,25.62
2018-11-14T22:23:04.422Z,25.25
2018-11-14T22:25:33.081Z,25.25
2018-11-14T22:28:01.759Z,24.10
2018-11-14T22:30:31.861Z,24.27
2018-11-14T22:33:00.642Z,25.90
2018-11-14T22:35:30.517Z,27.52
2018-11-14T22:37:59.320Z,24.67
2018-11-14T22:40:29.777Z,21.73
2018-11-14T22:42:58.516Z,28.52
2018-11-14T22:45:29.245Z,24.32
2018-11-14T22:47:57.847Z,25.85
2018-11-14T22:50:26.939Z,26.33
2018-11-14T22:52:55.593Z,26.50
2018-11-14T22:55:25.111Z,25.92
2018-11-14T22:57:54.117Z,27.25
2018-11-14T23:00:26.159Z,24.18
2018-11-14T23:02:55.990Z,25.72
2018-11-14T23:05:24.996Z,25.23
2018-11-14T23:07:54.620Z,26.55
2018-11-14T23:10:24.508Z,23.50
2018-11-14T23:12:53.194Z,25.20
2018-11-14T23:15:22.375Z,24.70
2018-11-14T23:17:51.204Z,23.77
2018-11-14T23:20:20.091Z,22.70
2018-11-14T23:22:49.380Z,24.85
2018-11-14T23:25:18.407Z,24.82
2018-11-14T23:27:48.093Z,23.62
2018-11-14T23:30:17.498Z,23.30
2018-11-14T23:32:47.260Z,24.75
2018-11-14T23:35:25.244Z,22.02
2018-11-14T23:37:55.736Z,22.40
2018-11-14T23:40:24.320Z,22.85
2018-11-14T23:42:52.940Z,24.27
2018-11-14T23:45:22.252Z,20.95
2018-11-14T23:47:51.167Z,23.10
2018-11-14T23:50:20.782Z,22.40
2018-11-14T23:52:50.324Z,21.65
2018-11-14T23:55:19.535Z,21.12
2018-11-14T23:57:48.157Z,20.90
